Time;durP1;ratioP1;P1;durP2;ratioP2;P2;SDS_P1;SDS_P2;PMS_P1;PMS_P2;Temp;Humidity;BMP_temperature;BMP_pressure;BME280_temperature;BME280_humidity;BME280_pressure;Samples;Min_cycle;Max_cycle;Signal;HPM_P1;HPM_P2
2021/07/02 00:00:49;;;;;;;21.80;13.73;;;14.40;99.90;;;;;;5070592;28;20542;-75
2021/07/02 00:03:16;;;;;;;22.27;13.70;;;14.40;99.90;;;;;;5074321;28;20917;-75
2021/07/02 00:05:43;;;;;;;19.77;13.60;;;14.40;99.90;;;;;;5061368;28;20486;-75
2021/07/02 00:08:09;;;;;;;21.07;13.93;;;14.40;99.90;;;;;;5057319;28;20483;-75
2021/07/02 00:10:37;;;;;;;18.67;13.70;;;14.40;99.90;;;;;;5054304;28;20441;-75
2021/07/02 00:13:04;;;;;;;22.10;14.40;;;14.50;99.90;;;;;;5063508;28;20456;-76
2021/07/02 00:15:32;;;;;;;23.83;12.97;;;14.50;99.90;;;;;;5051378;28;20996;-75
2021/07/02 00:17:59;;;;;;;23.77;14.43;;;14.50;99.90;;;;;;5060454;28;20438;-75
2021/07/02 00:20:26;;;;;;;21.40;13.00;;;14.50;99.90;;;;;;5073004;28;20444;-75
2021/07/02 00:22:53;;;;;;;20.87;14.80;;;14.50;99.90;;;;;;5068236;28;20456;-75
2021/07/02 00:25:20;;;;;;;20.33;14.23;;;14.50;99.90;;;;;;5054731;28;20491;-75
2021/07/02 00:27:47;;;;;;;19.50;13.57;;;14.50;99.90;;;;;;5053649;28;20480;-75
2021/07/02 00:30:14;;;;;;;18.80;12.70;;;14.50;99.90;;;;;;5056000;28;20453;-75
2021/07/02 00:32:43;;;;;;;20.33;13.00;;;14.40;99.90;;;;;;5052073;28;20461;-76
2021/07/02 00:35:10;;;;;;;20.43;13.90;;;14.50;99.90;;;;;;5053880;28;20567;-75
2021/07/02 00:37:37;;;;;;;18.80;13.27;;;14.50;99.90;;;;;;5051330;28;20427;-75
2021/07/02 00:40:05;;;;;;;21.37;13.07;;;14.50;99.90;;;;;;5052217;28;20453;-75
2021/07/02 00:42:32;;;;;;;19.90;13.10;;;14.50;99.90;;;;;;5053704;28;20542;-75
2021/07/02 00:44:59;;;;;;;16.77;11.80;;;14.50;99.90;;;;;;5056932;28;20784;-75
2021/07/02 00:47:26;;;;;;;17.97;12.60;;;14.50;99.90;;;;;;5052862;28;20457;-75
2021/07/02 00:49:54;;;;;;;25.07;12.93;;;14.50;99.90;;;;;;5068887;28;20483;-75
2021/07/02 00:52:22;;;;;;;17.90;12.67;;;14.40;99.90;;;;;;5068379;28;20970;-74
2021/07/02 00:54:52;;;;;;;20.47;13.40;;;14.40;99.90;;;;;;5060994;28;20460;-75
2021/07/02 00:57:19;;;;;;;16.47;11.37;;;14.50;99.90;;;;;;5056283;28;20800;-75
2021/07/02 00:59:46;;;;;;;22.30;12.47;;;14.50;99.90;;;;;;5050417;28;20449;-74
2021/07/02 01:02:13;;;;;;;17.73;11.97;;;14.50;99.90;;;;;;5051047;28;20436;-76
2021/07/02 01:04:41;;;;;;;17.40;12.53;;;14.50;99.90;;;;;;5050182;28;20642;-75
2021/07/02 01:07:11;;;;;;;18.27;10.70;;;14.50;99.90;;;;;;5060927;28;20486;-76
2021/07/02 01:09:38;;;;;;;19.53;12.17;;;14.50;99.90;;;;;;5067279;28;20487;-76
2021/07/02 01:12:06;;;;;;;17.43;11.93;;;14.50;99.90;;;;;;5054566;28;20484;-76
2021/07/02 01:14:33;;;;;;;19.17;12.50;;;14.50;99.90;;;;;;5053207;28;20448;-76
2021/07/02 01:17:00;;;;;;;17.77;11.93;;;14.50;99.90;;;;;;5051777;28;20991;-76
2021/07/02 01:19:27;;;;;;;17.73;12.37;;;14.50;99.90;;;;;;5056994;28;20923;-76
2021/07/02 01:21:55;;;;;;;20.07;11.90;;;14.40;99.90;;;;;;5047805;28;20793;-76
2021/07/02 01:24:22;;;;;;;16.07;11.93;;;14.40;99.90;;;;;;5059035;28;20431;-76
2021/07/02 01:26:51;;;;;;;18.20;11.00;;;14.40;99.90;;;;;;5069954;28;20474;-76
2021/07/02 01:29:19;;;;;;;19.03;11.10;;;14.40;99.90;;;;;;5060011;28;20493;-76
2021/07/02 01:31:46;;;;;;;19.33;11.50;;;14.40;99.90;;;;;;5049026;28;20547;-76
2021/07/02 01:34:13;;;;;;;15.10;11.27;;;14.40;99.90;;;;;;5054395;28;20440;-76
2021/07/02 01:36:40;;;;;;;22.27;10.70;;;14.40;99.90;;;;;;5046314;28;20484;-76
2021/07/02 01:39:08;;;;;;;17.20;10.27;;;14.30;99.90;;;;;;5067671;28;20951;-75
2021/07/02 01:41:35;;;;;;;13.80;10.67;;;14.30;99.90;;;;;;5063819;28;20451;-76
2021/07/02 01:44:02;;;;;;;16.73;11.40;;;14.30;99.90;;;;;;5069652;28;20445;-76
2021/07/02 01:46:29;;;;;;;14.37;10.73;;;14.30;99.90;;;;;;5061712;28;20477;-75
2021/07/02 01:48:56;;;;;;;15.20;10.80;;;14.30;99.90;;;;;;5054572;28;20483;-76
2021/07/02 01:51:23;;;;;;;17.70;11.23;;;14.30;99.90;;;;;;5049462;28;20452;-76
2021/07/02 01:53:50;;;;;;;19.50;10.50;;;14.30;99.90;;;;;;5057389;28;20467;-76
2021/07/02 01:56:18;;;;;;;15.37;9.63;;;14.20;99.90;;;;;;5069852;28;20459;-76
2021/07/02 01:58:45;;;;;;;17.37;10.90;;;14.20;99.90;;;;;;5067589;28;20460;-76
2021/07/02 02:01:12;;;;;;;17.60;12.83;;;14.20;99.90;;;;;;5061270;28;20450;-76
2021/07/02 02:03:39;;;;;;;18.00;9.93;;;14.20;99.90;;;;;;5072404;28;20438;-76
2021/07/02 02:06:06;;;;;;;16.30;10.40;;;14.20;99.90;;;;;;5068199;28;20471;-76
2021/07/02 02:08:53;;;;;;;17.00;10.70;;;14.10;99.90;;;;;;5033525;28;20476;-76
2021/07/02 02:11:21;;;;;;;13.10;10.07;;;14.10;99.90;;;;;;5037487;28;20473;-76
2021/07/02 02:13:47;;;;;;;18.70;12.97;;;14.10;99.90;;;;;;5047017;28;20470;-76
2021/07/02 02:16:14;;;;;;;18.87;10.43;;;14.00;99.90;;;;;;5046929;28;20465;-76
2021/07/02 02:18:41;;;;;;;14.67;11.40;;;14.00;99.90;;;;;;5030664;28;20479;-76
2021/07/02 02:21:08;;;;;;;17.20;12.20;;;14.00;99.90;;;;;;5046413;28;20444;-76
2021/07/02 02:23:35;;;;;;;19.13;10.67;;;13.90;99.90;;;;;;5046311;28;20900;-76
2021/07/02 02:26:02;;;;;;;15.37;11.70;;;13.90;99.90;;;;;;5049434;28;20463;-76
2021/07/02 02:28:30;;;;;;;18.20;12.00;;;13.90;99.90;;;;;;5051680;28;20486;-76
2021/07/02 02:30:57;;;;;;;19.33;10.93;;;13.80;99.90;;;;;;5056119;28;20439;-76
2021/07/02 02:33:24;;;;;;;20.13;10.70;;;13.80;99.90;;;;;;5056766;28;20670;-76
2021/07/02 02:35:51;;;;;;;20.03;11.70;;;13.80;99.90;;;;;;5049816;28;20863;-76
2021/07/02 02:38:18;;;;;;;16.70;11.97;;;13.70;99.90;;;;;;5048857;28;20809;-75
2021/07/02 02:40:45;;;;;;;15.87;11.13;;;13.70;99.90;;;;;;5050363;28;20932;-76
2021/07/02 02:43:11;;;;;;;16.63;10.00;;;13.70;99.90;;;;;;5051788;28;20465;-76
2021/07/02 02:45:40;;;;;;;17.87;11.20;;;13.60;99.90;;;;;;5053134;28;20463;-76
2021/07/02 02:48:07;;;;;;;17.43;12.10;;;13.60;99.90;;;;;;5052508;28;20938;-76
2021/07/02 02:50:34;;;;;;;18.63;11.60;;;13.60;99.90;;;;;;5050987;28;20491;-76
2021/07/02 02:53:01;;;;;;;19.57;10.90;;;13.50;99.90;;;;;;5054405;28;20475;-76
2021/07/02 02:55:28;;;;;;;16.23;11.23;;;13.50;99.90;;;;;;5049237;28;20459;-76
2021/07/02 02:57:55;;;;;;;16.63;9.93;;;13.40;99.90;;;;;;5064114;28;20889;-76
2021/07/02 03:00:21;;;;;;;16.73;11.33;;;13.40;99.90;;;;;;5070334;28;20541;-76
2021/07/02 03:02:50;;;;;;;15.17;9.50;;;13.40;99.90;;;;;;5057767;28;20457;-76
2021/07/02 03:05:16;;;;;;;14.10;9.83;;;13.40;99.90;;;;;;5068710;28;21007;-75
2021/07/02 03:07:43;;;;;;;19.87;11.90;;;13.30;99.90;;;;;;5056059;28;20794;-75
2021/07/02 03:10:11;;;;;;;14.73;10.00;;;13.30;99.90;;;;;;5049577;28;20930;-75
2021/07/02 03:12:38;;;;;;;17.27;11.83;;;13.20;99.90;;;;;;5068734;28;20460;-76
2021/07/02 03:15:06;;;;;;;13.70;10.10;;;13.20;99.90;;;;;;5067865;28;20815;-75
2021/07/02 03:17:33;;;;;;;14.20;10.53;;;13.20;99.90;;;;;;5048712;28;20450;-76
2021/07/02 03:20:01;;;;;;;13.40;10.90;;;13.20;99.90;;;;;;5066463;28;20942;-76
2021/07/02 03:22:28;;;;;;;22.63;11.37;;;13.20;99.90;;;;;;5055947;28;21092;-76
2021/07/02 03:24:55;;;;;;;16.30;11.27;;;13.20;99.90;;;;;;5067319;28;20453;-76
2021/07/02 03:27:21;;;;;;;17.53;10.80;;;13.20;99.90;;;;;;5070792;28;20444;-75
2021/07/02 03:29:49;;;;;;;23.20;10.27;;;13.20;99.90;;;;;;5052922;28;20487;-75
2021/07/02 03:32:15;;;;;;;20.63;11.73;;;13.20;99.90;;;;;;5055865;28;20453;-75
2021/07/02 03:34:44;;;;;;;18.83;10.97;;;13.20;99.90;;;;;;5048975;28;20436;-75
2021/07/02 03:37:12;;;;;;;17.50;11.23;;;13.20;99.90;;;;;;5048671;28;20445;-76
2021/07/02 03:39:40;;;;;;;16.43;10.60;;;13.20;99.90;;;;;;5050836;28;20454;-76
2021/07/02 03:42:07;;;;;;;19.93;11.10;;;13.10;99.90;;;;;;5054651;28;20806;-75
2021/07/02 03:44:34;;;;;;;17.40;11.20;;;13.10;99.90;;;;;;5060061;28;20464;-76
2021/07/02 03:47:01;;;;;;;14.40;10.03;;;13.10;99.90;;;;;;5067957;28;20469;-75
2021/07/02 03:49:28;;;;;;;15.43;11.33;;;13.10;99.90;;;;;;5056150;28;20842;-75
2021/07/02 03:51:56;;;;;;;15.97;11.60;;;13.00;99.90;;;;;;5055997;28;20420;-76
2021/07/02 03:54:24;;;;;;;18.90;12.63;;;13.00;99.90;;;;;;5050896;28;20710;-75
2021/07/02 03:59:32;;;;;;;19.20;11.73;;;13.00;99.90;;;;;;5053528;28;20590;-76
2021/07/02 04:01:58;;;;;;;19.30;10.27;;;13.00;99.90;;;;;;5071262;28;20795;-76
2021/07/02 04:04:25;;;;;;;14.93;11.10;;;13.00;99.90;;;;;;5069856;28;20467;-75
2021/07/02 04:06:52;;;;;;;13.77;10.53;;;13.00;99.90;;;;;;5056037;28;20444;-76
2021/07/02 04:09:19;;;;;;;15.93;10.33;;;13.00;99.90;;;;;;5057570;28;20482;-76
2021/07/02 04:11:47;;;;;;;21.33;11.43;;;13.00;99.90;;;;;;5062325;28;20479;-76
2021/07/02 04:14:14;;;;;;;17.80;11.00;;;12.90;99.90;;;;;;5071542;28;20445;-76
2021/07/02 04:16:41;;;;;;;22.70;11.10;;;12.90;99.90;;;;;;5061459;28;20560;-76
2021/07/02 04:19:08;;;;;;;15.00;10.30;;;12.90;99.90;;;;;;5059697;28;20468;-76
2021/07/02 04:21:35;;;;;;;21.70;11.00;;;12.90;99.90;;;;;;5057875;28;20789;-76
2021/07/02 04:24:02;;;;;;;21.03;10.50;;;13.00;99.90;;;;;;5059645;28;20452;-76
2021/07/02 04:26:29;;;;;;;13.73;9.43;;;12.90;99.90;;;;;;5071754;28;20457;-76
2021/07/02 04:28:57;;;;;;;15.53;11.27;;;12.90;99.90;;;;;;5062604;28;20453;-76
2021/07/02 04:31:24;;;;;;;14.27;10.40;;;12.90;99.90;;;;;;5071671;28;20441;-76
2021/07/02 04:33:50;;;;;;;15.13;11.23;;;12.90;99.90;;;;;;5069849;28;20456;-75
2021/07/02 04:36:17;;;;;;;14.33;10.00;;;12.90;99.90;;;;;;5070553;28;20490;-76
2021/07/02 04:38:45;;;;;;;13.43;10.07;;;13.00;99.90;;;;;;5065665;28;20487;-76
2021/07/02 04:41:11;;;;;;;15.50;9.73;;;12.90;99.90;;;;;;5053439;28;20811;-76
2021/07/02 04:43:38;;;;;;;14.53;10.37;;;13.00;99.90;;;;;;5056465;28;20432;-76
2021/07/02 04:46:07;;;;;;;18.40;10.60;;;12.90;99.90;;;;;;5051610;28;20495;-76
2021/07/02 04:48:34;;;;;;;17.73;10.60;;;12.90;99.90;;;;;;5050693;28;20445;-77
2021/07/02 04:51:01;;;;;;;16.23;10.90;;;12.90;99.90;;;;;;5050306;28;20489;-76
2021/07/02 04:53:27;;;;;;;15.87;10.20;;;12.90;99.90;;;;;;5051369;28;20449;-76
2021/07/02 04:55:54;;;;;;;16.37;10.50;;;12.90;99.90;;;;;;5053247;28;20571;-76
2021/07/02 04:58:21;;;;;;;17.50;11.00;;;12.90;99.90;;;;;;5053106;28;20436;-76
2021/07/02 05:00:49;;;;;;;20.57;11.27;;;12.90;99.90;;;;;;5057111;28;20453;-76
2021/07/02 05:03:17;;;;;;;13.83;10.00;;;12.90;99.90;;;;;;5071795;28;20433;-75
2021/07/02 05:05:44;;;;;;;12.63;9.20;;;13.00;99.90;;;;;;5057713;28;20455;-76
2021/07/02 05:08:12;;;;;;;11.90;7.90;;;13.00;99.90;;;;;;5050819;28;20463;-76
2021/07/02 05:10:39;;;;;;;12.20;7.60;;;13.10;99.90;;;;;;5050802;28;20488;-76
2021/07/02 05:13:06;;;;;;;11.10;8.00;;;13.20;99.90;;;;;;5062442;28;20448;-76
2021/07/02 05:15:33;;;;;;;12.13;7.90;;;13.20;99.90;;;;;;5057262;28;20457;-76
2021/07/02 05:18:00;;;;;;;10.47;8.40;;;13.40;99.90;;;;;;5062324;28;20449;-76
2021/07/02 05:20:29;;;;;;;10.97;7.60;;;13.50;99.90;;;;;;5056974;28;20789;-76
2021/07/02 05:22:56;;;;;;;10.33;7.60;;;13.60;99.90;;;;;;5048604;28;20473;-76
2021/07/02 05:25:23;;;;;;;11.07;8.03;;;13.80;99.90;;;;;;5066814;28;20453;-76
2021/07/02 05:27:49;;;;;;;10.80;7.67;;;13.90;99.90;;;;;;5064771;28;20452;-76
2021/07/02 05:30:18;;;;;;;15.87;7.53;;;14.10;99.90;;;;;;5058097;28;20475;-76
2021/07/02 05:32:44;;;;;;;9.13;6.20;;;14.30;99.90;;;;;;5065795;28;20456;-76
2021/07/02 05:35:12;;;;;;;11.97;6.63;;;14.60;99.90;;;;;;5054150;28;20472;-76
2021/07/02 05:37:44;;;;;;;10.97;6.67;;;14.90;99.90;;;;;;5049070;28;20802;-76
2021/07/02 05:40:14;;;;;;;11.10;6.17;;;15.30;99.90;;;;;;5063312;28;20482;-76
2021/07/02 05:42:41;;;;;;;8.63;6.60;;;15.80;99.90;;;;;;5068414;28;20447;-76
2021/07/02 05:45:09;;;;;;;9.73;7.20;;;16.20;99.90;;;;;;5049525;28;20495;-76
2021/07/02 05:47:38;;;;;;;8.87;7.53;;;16.70;99.90;;;;;;5054465;28;20800;-76
2021/07/02 05:50:06;;;;;;;11.47;7.83;;;17.00;99.90;;;;;;5051553;28;20476;-76
2021/07/02 05:52:34;;;;;;;10.13;7.10;;;17.30;99.90;;;;;;5050335;28;20457;-76
2021/07/02 05:55:03;;;;;;;9.80;7.03;;;17.50;99.90;;;;;;5049618;28;20460;-76
2021/07/02 05:57:30;;;;;;;8.53;6.63;;;17.80;99.90;;;;;;5048528;28;20472;-76
2021/07/02 05:59:57;;;;;;;14.40;6.83;;;18.10;99.90;;;;;;5052234;28;20453;-76
2021/07/02 06:02:24;;;;;;;7.90;6.30;;;18.40;99.90;;;;;;5055248;28;20429;-76
2021/07/02 06:04:51;;;;;;;10.17;6.77;;;18.70;99.90;;;;;;5050891;28;20435;-79
2021/07/02 06:07:21;;;;;;;7.83;6.60;;;19.10;99.90;;;;;;5058444;28;20531;-77
2021/07/02 06:09:47;;;;;;;9.57;5.90;;;19.30;99.90;;;;;;5054732;28;20477;-79
2021/07/02 06:12:16;;;;;;;8.20;6.47;;;19.60;99.90;;;;;;5050620;28;20483;-78
2021/07/02 06:14:42;;;;;;;7.83;5.60;;;19.60;99.90;;;;;;5055844;28;20424;-78
2021/07/02 06:17:09;;;;;;;7.30;6.57;;;19.80;99.90;;;;;;5044207;28;20457;-78
2021/07/02 06:19:36;;;;;;;9.60;6.37;;;19.90;99.90;;;;;;5046553;28;20459;-77
2021/07/02 06:22:04;;;;;;;8.37;6.43;;;20.00;99.90;;;;;;5047221;28;20958;-77
2021/07/02 06:24:31;;;;;;;8.33;6.90;;;20.00;99.90;;;;;;5046297;28;20449;-77
2021/07/02 06:26:58;;;;;;;10.30;7.17;;;20.00;99.90;;;;;;5056167;28;20861;-77
2021/07/02 06:29:26;;;;;;;8.70;6.87;;;19.90;99.90;;;;;;5046833;28;21090;-78
2021/07/02 06:31:53;;;;;;;10.03;6.90;;;20.10;99.90;;;;;;5047692;28;20445;-77
2021/07/02 06:34:20;;;;;;;8.20;7.20;;;20.30;99.90;;;;;;5048268;28;20459;-78
2021/07/02 06:36:47;;;;;;;8.80;6.23;;;20.30;99.90;;;;;;5050717;28;20464;-78
2021/07/02 06:39:14;;;;;;;8.37;6.27;;;20.20;99.90;;;;;;5048889;28;20469;-78
2021/07/02 06:41:41;;;;;;;10.77;7.43;;;20.20;99.90;;;;;;5066240;28;20444;-78
2021/07/02 06:44:08;;;;;;;8.20;6.37;;;20.20;99.90;;;;;;5059700;28;20448;-78
2021/07/02 06:46:36;;;;;;;7.03;6.10;;;20.10;99.90;;;;;;5046470;28;20981;-78
2021/07/02 06:49:05;;;;;;;9.03;6.47;;;20.20;99.90;;;;;;5057449;28;20455;-77
2021/07/02 06:51:33;;;;;;;8.10;6.20;;;20.20;99.90;;;;;;5047003;28;20579;-77
2021/07/02 06:54:01;;;;;;;7.50;5.70;;;20.30;99.90;;;;;;5047344;28;20879;-77
2021/07/02 06:56:28;;;;;;;7.43;4.60;;;20.40;99.90;;;;;;5046946;28;20460;-78
2021/07/02 06:58:55;;;;;;;9.00;4.77;;;20.50;99.90;;;;;;5048940;28;20453;-78
2021/07/02 07:01:22;;;;;;;11.33;5.23;;;20.70;99.90;;;;;;5046560;28;20448;-77
2021/07/02 07:03:50;;;;;;;4.63;3.97;;;20.90;99.90;;;;;;5064959;28;20451;-78
2021/07/02 07:06:18;;;;;;;5.97;5.10;;;21.10;99.90;;;;;;5065160;28;20475;-78
2021/07/02 07:08:45;;;;;;;7.33;4.83;;;21.20;99.90;;;;;;5055559;28;20488;-78
2021/07/02 07:11:12;;;;;;;7.67;4.30;;;21.40;99.90;;;;;;5045703;28;20493;-77
2021/07/02 07:13:41;;;;;;;6.33;4.30;;;21.70;99.90;;;;;;5048104;28;20467;-78
2021/07/02 07:16:09;;;;;;;6.97;4.53;;;21.90;99.90;;;;;;5048888;28;20458;-78
2021/07/02 07:18:36;;;;;;;6.23;3.70;;;22.20;99.90;;;;;;5048611;28;20464;-77
2021/07/02 07:21:05;;;;;;;5.73;3.90;;;22.30;99.90;;;;;;5060954;28;20474;-79
2021/07/02 07:23:32;;;;;;;5.50;3.60;;;22.70;99.90;;;;;;5069155;28;20981;-78
2021/07/02 07:25:58;;;;;;;4.10;3.70;;;23.10;99.90;;;;;;5062656;28;20886;-78
2021/07/02 07:28:25;;;;;;;4.23;3.83;;;23.60;99.90;;;;;;5053690;28;20457;-78
2021/07/02 07:30:52;;;;;;;5.43;3.80;;;24.10;99.90;;;;;;5047893;28;20487;-78
2021/07/02 07:33:19;;;;;;;3.40;3.10;;;24.60;99.90;;;;;;5054496;28;20459;-78
2021/07/02 07:35:48;;;;;;;5.97;3.70;;;24.90;99.90;;;;;;5052034;28;20818;-78
2021/07/02 07:38:17;;;;;;;6.03;3.13;;;25.40;99.90;;;;;;5052368;28;20502;-78
2021/07/02 07:40:44;;;;;;;4.03;2.97;;;25.90;99.90;;;;;;5053454;28;20464;-79
2021/07/02 07:43:11;;;;;;;3.57;3.20;;;26.30;99.90;;;;;;5053721;28;20467;-78
2021/07/02 07:45:37;;;;;;;3.93;3.13;;;26.70;99.90;;;;;;5058251;28;20987;-79
2021/07/02 07:48:05;;;;;;;3.20;2.90;;;27.20;99.90;;;;;;5072223;28;20762;-78
2021/07/02 07:50:41;;;;;;;5.07;3.37;;;27.60;99.90;;;;;;5059575;28;20550;-79
2021/07/02 07:53:09;;;;;;;4.10;3.07;;;27.80;99.90;;;;;;5055448;28;20449;-79
2021/07/02 07:55:38;;;;;;;6.00;3.43;;;28.00;99.90;;;;;;5056739;28;20529;-81
2021/07/02 07:58:05;;;;;;;4.30;3.90;;;28.00;99.90;;;;;;5058685;28;20439;-77
2021/07/02 08:00:32;;;;;;;5.90;3.20;;;27.90;99.90;;;;;;5054160;28;20450;-77
2021/07/02 08:03:00;;;;;;;3.40;3.10;;;27.70;99.90;;;;;;5057939;28;20444;-77
2021/07/02 08:05:27;;;;;;;4.00;2.80;;;27.30;99.90;;;;;;5054969;28;20472;-77
2021/07/02 08:07:54;;;;;;;5.13;3.40;;;27.20;99.90;;;;;;5054866;28;20444;-74
2021/07/02 08:10:23;;;;;;;5.07;3.60;;;27.00;99.90;;;;;;5055508;28;20479;-77
2021/07/02 10:44:24;;;;;;;6.00;4.00;;;22.50;99.90;;;;;;5499463;22;21339;-82
2021/07/02 10:47:02;;;;;;;7.13;5.43;;;22.50;99.90;;;;;;5017331;28;20986;-81
2021/07/02 10:49:38;;;;;;;6.77;4.23;;;22.50;99.90;;;;;;5009365;28;20446;-81
2021/07/02 10:52:21;;;;;;;5.60;4.50;;;22.50;99.90;;;;;;5027324;28;20541;-81
2021/07/02 10:54:48;;;;;;;9.13;5.30;;;22.40;99.90;;;;;;4995822;28;20488;-83
2021/07/02 10:57:19;;;;;;;5.80;5.17;;;22.40;99.90;;;;;;5022608;28;20758;-82
2021/07/02 11:00:04;;;;;;;6.33;4.37;;;22.40;99.90;;;;;;5018288;28;20455;-81
2021/07/02 11:02:31;;;;;;;6.10;4.93;;;22.50;99.90;;;;;;4990870;28;20948;-83
2021/07/02 11:04:59;;;;;;;7.20;5.80;;;22.60;99.90;;;;;;5005390;28;20469;-81
2021/07/02 11:07:42;;;;;;;7.60;5.80;;;22.50;99.90;;;;;;5004325;28;20807;-82
2021/07/02 11:10:10;;;;;;;7.53;4.90;;;22.50;99.90;;;;;;4990740;28;20472;-81
2021/07/02 11:12:38;;;;;;;6.60;5.50;;;22.50;99.90;;;;;;5019995;28;20497;-81
2021/07/02 11:15:15;;;;;;;6.97;5.70;;;22.40;99.90;;;;;;5005167;28;20610;-82
2021/07/02 11:17:43;;;;;;;8.50;5.33;;;22.40;99.90;;;;;;4979180;28;20566;-82
2021/07/02 11:20:28;;;;;;;6.77;6.03;;;22.40;99.90;;;;;;5006960;28;20797;-82
2021/07/02 11:23:14;;;;;;;7.00;4.73;;;22.40;99.90;;;;;;5004172;28;20469;-84
2021/07/02 11:25:46;;;;;;;6.70;4.50;;;22.40;99.90;;;;;;5001003;28;20846;-81
2021/07/02 11:28:16;;;;;;;4.93;4.13;;;22.50;99.90;;;;;;5006033;28;20444;-83
2021/07/02 11:30:47;;;;;;;7.50;5.17;;;22.50;99.90;;;;;;5022570;28;20485;-82
2021/07/02 11:33:18;;;;;;;6.83;5.47;;;22.40;99.90;;;;;;5007290;28;20448;-82
2021/07/02 11:35:47;;;;;;;8.20;5.00;;;22.40;99.90;;;;;;5019349;28;20581;-81
2021/07/02 11:38:15;;;;;;;7.13;5.57;;;22.40;99.90;;;;;;4995619;28;20549;-83
2021/07/02 11:40:47;;;;;;;8.20;5.57;;;22.40;99.90;;;;;;5000353;28;20506;-82
2021/07/02 11:43:16;;;;;;;6.83;5.00;;;22.30;99.90;;;;;;4986492;28;20536;-82
2021/07/02 11:45:47;;;;;;;7.40;5.37;;;22.30;99.90;;;;;;4973650;28;20503;-82
2021/07/02 11:48:30;;;;;;;6.03;5.00;;;22.20;99.90;;;;;;5023651;28;20457;-83
2021/07/02 11:51:00;;;;;;;7.40;5.70;;;22.20;99.90;;;;;;5001635;28;21009;-82
2021/07/02 11:53:30;;;;;;;5.70;5.10;;;22.10;99.90;;;;;;5016098;28;20446;-81
2021/07/02 11:56:00;;;;;;;6.40;5.80;;;22.10;99.90;;;;;;5002481;28;20484;-81
2021/07/02 11:58:29;;;;;;;6.33;4.60;;;22.00;99.90;;;;;;5007446;28;20813;-82
2021/07/02 12:00:59;;;;;;;5.60;5.07;;;22.00;99.90;;;;;;4998017;28;20513;-82
2021/07/02 12:03:26;;;;;;;6.77;5.60;;;22.00;99.90;;;;;;4991476;28;20447;-83
2021/07/02 12:05:56;;;;;;;9.93;5.50;;;22.00;99.90;;;;;;4992955;28;20915;-81
2021/07/02 12:08:23;;;;;;;9.30;6.30;;;22.00;99.90;;;;;;4992934;28;20454;-80
2021/07/02 12:10:59;;;;;;;7.33;6.07;;;22.00;99.90;;;;;;4976647;28;20819;-82
2021/07/02 12:13:26;;;;;;;6.00;5.17;;;22.00;99.90;;;;;;5007922;28;20473;-81
2021/07/02 12:16:05;;;;;;;10.10;5.47;;;22.10;99.90;;;;;;5018645;28;20454;-81
2021/07/02 12:18:33;;;;;;;5.77;5.17;;;22.20;99.90;;;;;;5020642;28;20453;-80
2021/07/02 12:21:02;;;;;;;6.83;6.13;;;22.20;99.90;;;;;;5027643;28;20450;-80
2021/07/02 12:23:31;;;;;;;5.47;4.60;;;22.20;99.90;;;;;;5009396;28;20461;-79
2021/07/02 12:26:11;;;;;;;8.60;4.97;;;22.30;99.90;;;;;;5010856;28;20462;-79
2021/07/02 12:29:01;;;;;;;6.60;4.90;;;22.40;99.90;;;;;;5006327;28;20549;-80
2021/07/02 12:31:32;;;;;;;6.43;5.00;;;22.40;99.90;;;;;;5010051;28;20818;-80
2021/07/02 12:34:00;;;;;;;5.20;4.70;;;22.50;99.90;;;;;;4994668;28;20467;-81
2021/07/02 12:36:29;;;;;;;5.27;4.77;;;22.60;99.90;;;;;;5029446;28;20975;-80
2021/07/02 12:39:01;;;;;;;5.77;4.60;;;22.60;99.90;;;;;;5002424;28;20462;-80
2021/07/02 12:41:39;;;;;;;5.60;5.00;;;22.60;99.90;;;;;;5006152;28;20470;-80
2021/07/02 12:44:07;;;;;;;5.47;4.90;;;22.60;99.90;;;;;;5024953;28;20490;-79
2021/07/02 12:46:36;;;;;;;6.30;5.00;;;22.70;99.90;;;;;;5007445;28;21189;-79
2021/07/02 12:49:33;;;;;;;4.77;4.37;;;22.70;99.90;;;;;;5021459;28;20450;-79
2021/07/02 12:54:48;;;;;;;5.87;5.23;;;22.70;99.90;;;;;;5022266;28;20469;-79
2021/07/02 12:57:17;;;;;;;7.53;5.57;;;22.70;99.90;;;;;;5009669;28;20454;-81
2021/07/02 12:59:46;;;;;;;6.57;5.00;;;22.70;99.90;;;;;;5027664;28;20473;-80
2021/07/02 13:02:24;;;;;;;8.90;5.00;;;22.70;99.90;;;;;;5010289;28;20816;-80
2021/07/02 13:04:51;;;;;;;5.30;4.80;;;22.70;99.90;;;;;;5000605;28;20485;-79
2021/07/02 13:07:18;;;;;;;6.07;5.40;;;22.70;99.90;;;;;;5017014;28;20467;-80
2021/07/02 13:09:45;;;;;;;6.40;5.17;;;22.70;99.90;;;;;;5009225;28;20439;-80
2021/07/02 13:12:13;;;;;;;12.37;5.20;;;22.70;99.90;;;;;;5010927;28;21017;-80
2021/07/02 13:14:42;;;;;;;6.90;4.67;;;22.70;99.90;;;;;;5023720;28;20453;-80
2021/07/02 13:17:09;;;;;;;4.83;4.33;;;22.60;99.90;;;;;;5005064;28;20438;-79
2021/07/02 13:19:38;;;;;;;6.50;5.23;;;22.60;99.90;;;;;;5008700;28;20470;-81
2021/07/02 13:22:16;;;;;;;5.67;4.60;;;22.60;99.90;;;;;;5006927;28;20818;-80
2021/07/02 13:24:43;;;;;;;5.73;5.13;;;22.50;99.90;;;;;;5006297;28;20488;-82
2021/07/02 13:27:11;;;;;;;6.40;5.30;;;22.50;99.90;;;;;;5028173;28;20459;-82
2021/07/02 13:29:38;;;;;;;6.23;5.40;;;22.50;99.90;;;;;;5008130;28;20454;-81
2021/07/02 13:32:07;;;;;;;6.23;5.10;;;22.50;99.90;;;;;;5028495;28;20496;-81
2021/07/02 13:34:44;;;;;;;5.80;5.20;;;22.40;99.90;;;;;;5026364;28;20823;-80
2021/07/02 13:37:11;;;;;;;5.97;5.17;;;22.40;99.90;;;;;;5022604;28;20835;-81
2021/07/02 13:39:42;;;;;;;9.23;6.70;;;22.40;99.90;;;;;;5022966;28;20442;-80
2021/07/02 13:42:10;;;;;;;7.53;5.40;;;22.30;99.90;;;;;;5022506;28;20454;-81
2021/07/02 13:44:40;;;;;;;5.97;5.40;;;22.20;99.90;;;;;;4998507;28;20494;-82
2021/07/02 13:47:08;;;;;;;7.70;6.27;;;22.20;99.90;;;;;;4975406;28;20462;-83
2021/07/02 13:49:37;;;;;;;6.40;5.20;;;22.20;99.90;;;;;;5019304;28;20498;-80
2021/07/02 13:52:07;;;;;;;7.00;4.70;;;22.20;99.90;;;;;;5019671;28;20488;-80
2021/07/02 13:54:34;;;;;;;7.53;5.30;;;22.20;99.90;;;;;;5013540;28;20523;-79
2021/07/02 13:57:03;;;;;;;8.80;5.80;;;22.20;99.90;;;;;;5011568;28;20442;-81
2021/07/02 13:59:31;;;;;;;6.73;5.50;;;22.20;99.90;;;;;;5001320;28;20459;-80
2021/07/02 14:01:59;;;;;;;7.07;6.10;;;22.30;99.90;;;;;;5002793;28;20458;-84
2021/07/02 14:04:26;;;;;;;7.10;5.77;;;22.20;99.90;;;;;;5015770;28;20465;-83
2021/07/02 14:06:53;;;;;;;6.10;5.50;;;22.30;99.90;;;;;;5018701;28;20883;-84
2021/07/02 14:09:21;;;;;;;6.23;5.43;;;22.30;99.90;;;;;;5007167;28;20442;-81
2021/07/02 14:11:49;;;;;;;6.20;5.60;;;22.30;99.90;;;;;;5022999;28;20486;-82
2021/07/02 14:14:17;;;;;;;10.73;6.63;;;22.30;99.90;;;;;;5019593;28;20474;-82
2021/07/02 14:16:44;;;;;;;10.67;6.50;;;22.20;99.90;;;;;;5023100;28;20467;-81
2021/07/02 14:19:11;;;;;;;7.60;5.30;;;22.20;99.90;;;;;;5013914;28;20910;-81
2021/07/02 14:21:40;;;;;;;6.70;5.57;;;22.20;99.90;;;;;;5021610;28;20465;-80
2021/07/02 14:24:08;;;;;;;7.30;5.60;;;22.20;99.90;;;;;;5021815;28;20995;-80
2021/07/02 14:26:37;;;;;;;6.50;5.07;;;22.20;99.90;;;;;;5005979;28;20482;-80
2021/07/02 14:29:04;;;;;;;7.37;6.00;;;22.20;99.90;;;;;;5005789;28;20713;-81
2021/07/02 14:31:31;;;;;;;8.83;5.87;;;22.20;99.90;;;;;;5004152;28;20480;-81
2021/07/02 14:33:58;;;;;;;7.40;5.33;;;22.20;99.90;;;;;;5026200;28;20454;-80
2021/07/02 14:36:25;;;;;;;9.10;5.60;;;22.30;99.90;;;;;;5018424;28;20457;-82
2021/07/02 14:38:52;;;;;;;6.20;5.63;;;22.30;99.90;;;;;;5022681;28;20461;-81
2021/07/02 14:41:19;;;;;;;9.13;6.53;;;22.30;99.90;;;;;;5022281;28;20834;-81
2021/07/02 14:43:48;;;;;;;7.33;5.80;;;22.30;99.90;;;;;;5025555;28;20481;-81
2021/07/02 14:46:15;;;;;;;7.20;5.90;;;22.30;99.90;;;;;;5000437;28;20479;-81
2021/07/02 14:48:42;;;;;;;7.10;5.40;;;22.40;99.90;;;;;;5013972;28;20883;-80
2021/07/02 14:51:09;;;;;;;9.27;5.73;;;22.40;99.90;;;;;;5019899;28;20462;-80
2021/07/02 14:53:36;;;;;;;6.97;6.27;;;22.50;99.90;;;;;;5022621;28;20979;-81
2021/07/02 14:56:03;;;;;;;5.73;4.93;;;22.50;99.90;;;;;;5013527;28;20768;-81
2021/07/02 14:58:30;;;;;;;6.40;5.80;;;22.50;99.90;;;;;;5005966;28;20447;-81
2021/07/02 15:00:58;;;;;;;6.60;5.40;;;22.60;99.90;;;;;;5006802;28;20442;-81
2021/07/02 15:03:25;;;;;;;6.83;5.60;;;22.60;99.90;;;;;;5014381;28;20990;-80
2021/07/02 15:05:52;;;;;;;6.43;5.80;;;22.60;99.90;;;;;;5007658;28;20458;-81
2021/07/02 15:08:19;;;;;;;6.70;5.90;;;22.60;99.90;;;;;;5009190;28;20549;-80
2021/07/02 15:10:46;;;;;;;7.50;5.90;;;22.60;99.90;;;;;;5015601;28;20459;-82
2021/07/02 15:13:13;;;;;;;6.67;5.70;;;22.50;99.90;;;;;;5021092;28;20478;-81
2021/07/02 15:15:40;;;;;;;6.07;5.20;;;22.60;99.90;;;;;;5013950;28;21433;-79
2021/07/02 15:18:11;;;;;;;7.90;5.83;;;22.60;99.90;;;;;;5011424;28;20451;-79
2021/07/02 15:20:38;;;;;;;6.30;5.70;;;22.50;99.90;;;;;;5007722;28;20887;-81